Time;durP1;ratioP1;P1;durP2;ratioP2;P2;SDS_P1;SDS_P2;PMS_P1;PMS_P2;Temp;Humidity;BMP_temperature;BMP_pressure;BME280_temperature;BME280_humidity;BME280_pressure;Samples;Min_cycle;Max_cycle;Signal;HPM_P1;HPM_P2
2023/01/29 00:00:24;;;;;;;19.85;17.67;;;3.80;99.90;;;;;;7363764;19;20032;-88
2023/01/29 00:02:54;;;;;;;22.35;17.73;;;3.70;99.90;;;;;;7366156;19;20584;-87
2023/01/29 00:05:20;;;;;;;23.92;17.45;;;3.70;99.90;;;;;;7365152;19;20657;-87
2023/01/29 00:07:56;;;;;;;21.83;17.15;;;3.70;99.90;;;;;;7363105;19;20030;-87
2023/01/29 00:10:24;;;;;;;22.10;17.23;;;3.70;99.90;;;;;;7364911;19;20369;-87
2023/01/29 00:12:50;;;;;;;22.15;17.80;;;3.70;99.90;;;;;;7365697;19;20515;-88
2023/01/29 00:15:17;;;;;;;23.88;16.65;;;3.80;99.90;;;;;;7362302;19;20022;-88
2023/01/29 00:17:43;;;;;;;21.40;18.05;;;3.80;99.90;;;;;;7364677;19;20118;-87
2023/01/29 00:20:13;;;;;;;20.23;17.10;;;3.80;99.90;;;;;;7363705;19;20018;-89
2023/01/29 00:22:39;;;;;;;22.05;16.77;;;3.80;99.90;;;;;;7363421;19;20030;-88
2023/01/29 00:25:06;;;;;;;23.17;16.75;;;3.70;99.90;;;;;;7363122;19;20038;-88
2023/01/29 00:27:32;;;;;;;22.13;16.98;;;3.80;99.90;;;;;;7363728;19;20018;-88
2023/01/29 00:30:17;;;;;;;20.38;16.92;;;3.80;99.90;;;;;;7365705;19;20011;-88
2023/01/29 00:32:44;;;;;;;20.48;16.88;;;3.80;99.90;;;;;;7363488;19;20025;-88
2023/01/29 00:35:13;;;;;;;20.40;16.63;;;3.80;99.90;;;;;;7366222;19;20021;-88
2023/01/29 00:37:40;;;;;;;20.08;15.85;;;3.80;99.90;;;;;;7362570;19;20019;-88
2023/01/29 00:40:08;;;;;;;22.08;17.05;;;3.90;99.90;;;;;;7366314;19;20060;-88
2023/01/29 00:45:19;;;;;;;23.38;16.88;;;3.80;99.90;;;;;;7365050;19;20508;-88
2023/01/29 00:47:46;;;;;;;21.92;16.95;;;3.90;99.90;;;;;;7364458;19;20098;-88
2023/01/29 00:50:16;;;;;;;22.38;16.45;;;3.90;99.90;;;;;;7373592;19;20121;-88
2023/01/29 00:52:42;;;;;;;24.83;19.35;;;3.80;99.90;;;;;;7372309;19;20047;-88
2023/01/29 00:55:10;;;;;;;22.63;16.98;;;3.90;99.90;;;;;;7371695;19;20044;-88
2023/01/29 00:57:38;;;;;;;20.40;17.23;;;3.80;99.90;;;;;;7372428;19;20026;-87
2023/01/29 01:00:09;;;;;;;23.23;17.05;;;3.80;99.90;;;;;;7370696;19;20415;-87
2023/01/29 01:05:23;;;;;;;20.17;17.75;;;3.80;99.90;;;;;;7368670;19;20036;-88
2023/01/29 01:07:52;;;;;;;23.98;18.05;;;3.80;99.90;;;;;;7372224;19;20018;-89
2023/01/29 01:10:23;;;;;;;22.80;17.75;;;3.80;99.90;;;;;;7372193;19;20819;-88
2023/01/29 01:12:55;;;;;;;24.33;18.50;;;3.90;99.90;;;;;;7367119;19;20010;-88
2023/01/29 01:15:28;;;;;;;21.58;17.45;;;3.80;99.90;;;;;;7369286;19;20026;-88
2023/01/29 01:17:59;;;;;;;23.08;18.50;;;3.80;99.90;;;;;;7372823;19;20029;-87
2023/01/29 01:20:29;;;;;;;19.65;17.10;;;3.80;99.90;;;;;;7374218;19;20042;-88
2023/01/29 01:22:57;;;;;;;23.77;17.20;;;3.80;99.90;;;;;;7372558;19;20634;-87
2023/01/29 01:25:28;;;;;;;22.35;18.25;;;3.80;99.90;;;;;;7368489;19;20403;-88
2023/01/29 01:27:57;;;;;;;22.33;17.83;;;3.90;99.90;;;;;;7371177;19;20481;-88
2023/01/29 01:30:24;;;;;;;23.80;17.52;;;3.90;99.90;;;;;;7371778;19;20049;-87
2023/01/29 01:32:51;;;;;;;23.10;17.48;;;3.90;99.90;;;;;;7368937;19;20018;-88
2023/01/29 01:35:18;;;;;;;22.67;18.15;;;3.90;99.90;;;;;;7369488;19;20018;-88
2023/01/29 01:37:47;;;;;;;22.27;17.65;;;3.90;99.90;;;;;;7370742;19;20010;-88
2023/01/29 01:40:22;;;;;;;22.27;17.90;;;3.90;99.90;;;;;;7372317;19;20070;-87
2023/01/29 01:42:56;;;;;;;21.35;17.70;;;3.80;99.90;;;;;;7374960;19;20026;-87
2023/01/29 01:45:34;;;;;;;24.45;18.13;;;3.90;99.90;;;;;;7368993;19;20022;-87
2023/01/29 01:48:15;;;;;;;20.70;17.02;;;3.90;99.90;;;;;;7373759;19;20033;-88
2023/01/29 01:50:57;;;;;;;21.90;18.65;;;3.80;99.90;;;;;;7368045;19;20036;-87
2023/01/29 01:53:38;;;;;;;23.60;18.35;;;3.90;99.90;;;;;;7370228;19;20018;-89
2023/01/29 01:56:10;;;;;;;20.83;18.08;;;3.90;99.90;;;;;;7372349;19;20616;-88
2023/01/29 01:58:46;;;;;;;26.52;18.58;;;3.90;99.90;;;;;;7366472;19;20026;-89
2023/01/29 02:01:14;;;;;;;22.65;18.20;;;3.90;99.90;;;;;;7371529;19;20787;-88
2023/01/29 02:09:38;;;;;;;22.42;18.13;;;4.00;99.90;;;;;;7371089;19;20048;-88
2023/01/29 02:12:08;;;;;;;23.63;17.63;;;3.90;99.90;;;;;;7368076;19;20868;-88
2023/01/29 02:14:38;;;;;;;22.10;18.30;;;4.00;99.90;;;;;;7369732;19;20706;-89
2023/01/29 02:17:06;;;;;;;22.85;18.17;;;4.00;99.90;;;;;;7370067;19;20015;-88
2023/01/29 02:19:51;;;;;;;22.65;18.00;;;4.00;99.90;;;;;;7368652;19;20067;-88
2023/01/29 02:23:04;;;;;;;22.00;16.77;;;4.00;99.90;;;;;;7367817;19;20098;-88
2023/01/29 02:25:55;;;;;;;22.45;16.73;;;4.00;99.90;;;;;;7365370;19;20014;-88
2023/01/29 02:28:35;;;;;;;22.73;17.92;;;4.00;99.90;;;;;;7367106;19;20086;-88
2023/01/29 02:31:08;;;;;;;23.40;17.70;;;4.00;99.90;;;;;;7366712;19;20026;-89
2023/01/29 02:33:59;;;;;;;21.15;17.45;;;3.90;99.90;;;;;;7365887;19;20010;-87
2023/01/29 02:36:34;;;;;;;18.73;16.55;;;4.00;99.90;;;;;;7366654;19;20094;-87
2023/01/29 02:39:15;;;;;;;20.73;16.67;;;4.00;99.90;;;;;;7370433;19;20022;-88
2023/01/29 02:42:10;;;;;;;23.40;18.10;;;4.00;99.90;;;;;;7370342;19;20050;-89
2023/01/29 02:44:53;;;;;;;24.17;16.45;;;4.00;99.90;;;;;;7363060;19;20043;-88
2023/01/29 02:47:28;;;;;;;22.17;17.63;;;4.00;99.90;;;;;;7372417;19;20023;-88
2023/01/29 02:50:11;;;;;;;24.98;16.98;;;4.00;99.90;;;;;;7362616;19;20029;-88
2023/01/29 02:53:01;;;;;;;22.98;17.45;;;4.00;99.90;;;;;;7363396;19;20014;-89
2023/01/29 02:55:50;;;;;;;22.90;18.23;;;3.90;99.90;;;;;;7366681;19;20018;-88
2023/01/29 02:58:19;;;;;;;;;;;3.90;99.90;;;;;;7369010;19;20814;-87
2023/01/29 03:00:48;;;;;;;21.60;17.70;;;3.90;99.90;;;;;;7365319;19;19927;-88
2023/01/29 03:03:23;;;;;;;22.23;17.00;;;3.90;99.90;;;;;;7366134;19;20018;-89
2023/01/29 03:06:17;;;;;;;21.90;17.38;;;3.90;99.90;;;;;;7365822;19;20018;-88
2023/01/29 03:08:49;;;;;;;21.48;18.02;;;4.00;99.90;;;;;;7369272;19;20035;-87
2023/01/29 03:11:25;;;;;;;22.85;17.65;;;3.90;99.90;;;;;;7366642;19;20023;-88
2023/01/29 03:14:04;;;;;;;22.10;17.83;;;4.00;99.90;;;;;;7366786;19;20026;-88
2023/01/29 03:16:41;;;;;;;22.88;19.13;;;4.00;99.90;;;;;;7367426;19;20490;-88
2023/01/29 03:19:37;;;;;;;22.50;18.45;;;4.00;99.90;;;;;;7369868;19;20022;-88
2023/01/29 03:22:12;;;;;;;20.58;17.02;;;4.00;99.90;;;;;;7366268;19;20018;-88
2023/01/29 03:33:27;;;;;;;23.70;20.00;;;4.00;99.90;;;;;;7363985;19;20560;-88
2023/01/29 03:36:02;;;;;;;25.20;19.02;;;4.00;99.90;;;;;;7365886;19;20022;-88
2023/01/29 03:38:30;;;;;;;24.77;19.35;;;4.00;99.90;;;;;;7363174;19;20479;-88
2023/01/29 03:41:10;;;;;;;25.30;19.92;;;4.10;99.90;;;;;;7365164;19;20022;-88
2023/01/29 03:43:53;;;;;;;23.33;19.00;;;4.10;99.90;;;;;;7361246;19;20093;-89
2023/01/29 03:46:45;;;;;;;23.70;18.88;;;4.10;99.90;;;;;;7364992;19;20111;-88
2023/01/29 03:49:18;;;;;;;25.33;20.88;;;4.10;99.90;;;;;;7368031;19;20115;-89
2023/01/29 03:52:07;;;;;;;25.30;19.10;;;4.10;99.90;;;;;;7366382;19;20030;-88
2023/01/29 03:54:50;;;;;;;26.05;20.00;;;4.10;99.90;;;;;;7365499;19;20423;-88
2023/01/29 03:57:57;;;;;;;26.40;20.85;;;4.10;99.90;;;;;;7370596;19;20598;-88
2023/01/29 04:00:59;;;;;;;28.80;21.75;;;4.10;99.90;;;;;;7364453;19;20039;-89
2023/01/29 04:03:36;;;;;;;27.40;19.90;;;4.10;99.90;;;;;;7365112;19;20031;-88
2023/01/29 04:06:10;;;;;;;26.67;21.38;;;4.10;99.90;;;;;;7365595;19;20019;-88
2023/01/29 04:09:03;;;;;;;29.70;22.25;;;4.10;99.90;;;;;;7365507;19;20506;-88
2023/01/29 04:11:32;;;;;;;26.20;20.95;;;4.10;99.90;;;;;;7364034;19;20105;-88
2023/01/29 04:13:59;;;;;;;28.58;22.20;;;4.10;99.90;;;;;;7368400;19;20018;-88
2023/01/29 04:16:40;;;;;;;28.10;23.73;;;4.10;99.90;;;;;;7371491;19;20125;-88
2023/01/29 04:19:19;;;;;;;25.50;21.85;;;4.10;99.90;;;;;;7371287;19;20526;-88
2023/01/29 04:21:51;;;;;;;28.63;23.67;;;4.10;99.90;;;;;;7368367;19;20053;-88
2023/01/29 04:24:18;;;;;;;29.10;24.08;;;4.10;99.90;;;;;;7374140;19;20492;-87
2023/01/29 04:26:59;;;;;;;32.13;24.73;;;4.20;99.90;;;;;;7373364;19;20804;-89
2023/01/29 04:30:00;;;;;;;31.42;23.65;;;4.10;99.90;;;;;;7377171;19;20023;-88
2023/01/29 04:32:34;;;;;;;29.15;23.05;;;4.10;99.90;;;;;;7377738;19;20858;-88
2023/01/29 04:35:25;;;;;;;29.63;24.75;;;4.10;99.90;;;;;;7373578;19;20022;-88
2023/01/29 04:38:22;;;;;;;30.50;25.00;;;4.20;99.90;;;;;;7373160;19;20014;-88
2023/01/29 04:41:04;;;;;;;30.08;24.38;;;4.20;99.90;;;;;;7370743;19;20018;-88
2023/01/29 04:44:01;;;;;;;30.92;25.27;;;4.10;99.90;;;;;;7373884;19;20090;-88
2023/01/29 04:46:46;;;;;;;29.02;25.50;;;4.10;99.90;;;;;;7374307;19;20014;-88
2023/01/29 04:49:34;;;;;;;31.25;25.83;;;4.10;99.90;;;;;;7377022;19;20037;-89
2023/01/29 04:52:04;;;;;;;29.92;25.73;;;4.10;99.90;;;;;;7371993;19;20050;-88
2023/01/29 04:54:47;;;;;;;32.35;25.90;;;4.10;99.90;;;;;;7372882;19;20023;-89
2023/01/29 04:57:25;;;;;;;31.30;25.77;;;4.20;99.90;;;;;;7371380;19;20113;-88
2023/01/29 05:00:01;;;;;;;32.28;25.38;;;4.10;99.90;;;;;;7373579;19;20023;-88
2023/01/29 05:02:33;;;;;;;29.27;25.75;;;4.10;99.90;;;;;;7369766;19;20018;-89
2023/01/29 05:05:00;;;;;;;33.53;28.77;;;4.10;99.90;;;;;;7373420;19;20029;-87
2023/01/29 05:07:29;;;;;;;31.15;27.08;;;4.20;99.90;;;;;;7370965;19;20114;-88
2023/01/29 05:09:56;;;;;;;29.92;24.77;;;4.10;99.90;;;;;;7375897;19;20030;-88
2023/01/29 05:12:25;;;;;;;30.33;25.75;;;4.20;99.90;;;;;;7373971;19;20029;-89
2023/01/29 05:14:55;;;;;;;33.72;26.73;;;4.10;99.90;;;;;;7373254;19;20025;-88
2023/01/29 05:17:23;;;;;;;34.92;28.65;;;4.10;99.90;;;;;;7369007;19;20019;-89
2023/01/29 05:19:50;;;;;;;32.83;27.00;;;4.10;99.90;;;;;;7372876;19;20034;-89
2023/01/29 05:22:21;;;;;;;31.02;27.33;;;4.20;99.90;;;;;;7371656;19;20014;-89
2023/01/29 05:24:49;;;;;;;30.63;25.80;;;4.20;99.90;;;;;;7372089;19;20046;-89
2023/01/29 05:30:12;;;;;;;31.13;26.70;;;4.20;99.90;;;;;;7371726;19;20049;-88
2023/01/29 05:32:39;;;;;;;31.00;26.33;;;4.20;99.90;;;;;;7370397;19;20070;-89
2023/01/29 05:35:08;;;;;;;31.48;27.17;;;4.20;99.90;;;;;;7374682;19;20050;-89
2023/01/29 05:37:37;;;;;;;30.75;27.27;;;4.10;99.90;;;;;;7372495;19;20022;-88
2023/01/29 05:40:08;;;;;;;;;;;4.20;99.90;;;;;;7375700;19;20036;-88
2023/01/29 05:42:37;;;;;;;30.15;26.60;;;4.20;99.90;;;;;;7372429;19;19946;-88
2023/01/29 05:45:04;;;;;;;32.22;28.02;;;4.10;99.90;;;;;;7371887;19;20057;-88
2023/01/29 05:47:35;;;;;;;29.67;26.48;;;4.10;99.90;;;;;;7375005;19;20015;-88
2023/01/29 05:50:05;;;;;;;32.78;25.67;;;4.10;99.90;;;;;;7372496;19;20019;-88
2023/01/29 05:52:35;;;;;;;32.97;28.10;;;4.20;99.90;;;;;;7378076;19;20026;-90
2023/01/29 05:55:04;;;;;;;33.60;27.30;;;4.10;99.90;;;;;;7373839;19;20027;-88
2023/01/29 05:57:30;;;;;;;30.98;27.52;;;4.10;99.90;;;;;;7376595;19;20018;-88
2023/01/29 05:59:57;;;;;;;33.15;29.40;;;4.10;99.90;;;;;;7374642;19;20022;-89
2023/01/29 06:02:24;;;;;;;32.38;28.80;;;4.10;99.90;;;;;;7376959;19;20018;-89
2023/01/29 06:04:53;;;;;;;32.22;28.92;;;4.10;99.90;;;;;;7375173;19;20022;-89
2023/01/29 06:07:24;;;;;;;34.55;28.40;;;4.10;99.90;;;;;;7378343;19;20025;-89
2023/01/29 06:09:51;;;;;;;31.48;28.02;;;4.10;99.90;;;;;;7370863;19;20014;-88
2023/01/29 06:12:18;;;;;;;32.28;28.77;;;4.10;99.90;;;;;;7375445;19;20341;-88
2023/01/29 06:14:46;;;;;;;34.28;28.88;;;4.10;99.90;;;;;;7374598;19;20025;-89
2023/01/29 06:17:15;;;;;;;32.00;28.35;;;4.10;99.90;;;;;;7377188;19;20053;-89
2023/01/29 06:19:44;;;;;;;33.42;28.77;;;4.10;99.90;;;;;;7375284;19;20029;-87
2023/01/29 06:22:14;;;;;;;30.50;27.30;;;4.10;99.90;;;;;;7372781;19;20079;-88
2023/01/29 06:24:41;;;;;;;31.85;28.40;;;4.10;99.90;;;;;;7372278;19;20022;-88
2023/01/29 06:27:09;;;;;;;28.45;25.52;;;4.20;99.90;;;;;;7372895;19;20022;-88
2023/01/29 06:29:39;;;;;;;33.70;29.05;;;4.20;99.90;;;;;;7373959;19;20021;-89
2023/01/29 06:32:08;;;;;;;33.40;26.23;;;4.20;99.90;;;;;;7371488;19;20007;-89
2023/01/29 06:34:37;;;;;;;31.27;26.58;;;4.10;99.90;;;;;;7367119;19;20018;-89
2023/01/29 06:37:06;;;;;;;28.73;24.60;;;4.10;99.90;;;;;;7366682;19;20018;-89
2023/01/29 06:39:34;;;;;;;33.30;27.50;;;4.10;99.90;;;;;;7369617;19;20491;-91
2023/01/29 06:42:02;;;;;;;31.13;27.30;;;4.20;99.90;;;;;;7371146;19;20018;-87
2023/01/29 06:44:28;;;;;;;29.80;26.52;;;4.10;99.90;;;;;;7366325;19;20022;-89
2023/01/29 06:46:55;;;;;;;30.98;27.02;;;4.10;99.90;;;;;;7367918;19;20090;-89
2023/01/29 06:49:25;;;;;;;29.90;26.70;;;4.10;99.90;;;;;;7368003;19;20018;-89
2023/01/29 06:51:52;;;;;;;30.98;26.92;;;4.10;99.90;;;;;;7368590;19;20038;-89
2023/01/29 06:54:18;;;;;;;31.25;27.95;;;4.10;99.90;;;;;;7369330;19;20018;-88
2023/01/29 06:56:45;;;;;;;34.10;28.58;;;4.10;99.90;;;;;;7365759;19;20042;-89
2023/01/29 06:59:14;;;;;;;31.88;26.95;;;4.10;99.90;;;;;;7373593;19;20127;-88
2023/01/29 07:01:43;;;;;;;30.95;26.70;;;4.10;99.90;;;;;;7371486;19;20006;-90
2023/01/29 07:04:22;;;;;;;33.63;27.25;;;4.00;99.90;;;;;;7374154;19;20328;-90
2023/01/29 07:06:51;;;;;;;32.15;26.90;;;4.00;99.90;;;;;;7371289;19;20041;-90
2023/01/29 07:09:22;;;;;;;31.15;25.63;;;4.00;99.90;;;;;;7373022;19;20019;-89
2023/01/29 07:12:00;;;;;;;32.10;26.42;;;4.10;99.90;;;;;;7372568;19;20435;-89
2023/01/29 07:14:27;;;;;;;33.03;26.58;;;4.10;99.90;;;;;;7372590;19;20035;-89
2023/01/29 07:16:54;;;;;;;30.70;25.60;;;4.10;99.90;;;;;;7370168;19;20021;-89
2023/01/29 07:19:26;;;;;;;30.95;26.27;;;4.10;99.90;;;;;;7371219;19;20102;-90
2023/01/29 07:21:52;;;;;;;31.05;25.48;;;4.10;99.90;;;;;;7372617;19;20021;-88
2023/01/29 07:24:24;;;;;;;30.50;25.83;;;4.10;99.90;;;;;;7374565;19;20074;-90
2023/01/29 07:26:55;;;;;;;32.70;27.30;;;4.10;99.90;;;;;;7377154;19;20019;-88
2023/01/29 07:29:22;;;;;;;34.63;28.45;;;4.10;99.90;;;;;;7374254;19;20019;-89
2023/01/29 07:31:48;;;;;;;33.08;28.58;;;4.10;99.90;;;;;;7369290;19;20143;-89
2023/01/29 07:34:15;;;;;;;32.10;28.70;;;4.20;99.90;;;;;;7372229;19;20023;-88
2023/01/29 07:36:42;;;;;;;31.08;27.92;;;4.20;99.90;;;;;;7372427;19;20043;-89
2023/01/29 07:39:11;;;;;;;34.67;29.70;;;4.20;99.90;;;;;;7371185;19;20026;-89
2023/01/29 07:41:37;;;;;;;35.90;29.20;;;4.20;99.90;;;;;;7367964;19;20030;-89
2023/01/29 07:44:14;;;;;;;35.03;27.95;;;4.20;99.90;;;;;;7370886;19;20014;-89
2023/01/29 07:46:43;;;;;;;38.13;29.17;;;4.20;99.90;;;;;;7370313;19;20039;-88
2023/01/29 07:49:12;;;;;;;33.45;29.60;;;4.10;99.90;;;;;;7373520;19;20014;-89
2023/01/29 07:51:46;;;;;;;36.28;30.08;;;4.10;99.90;;;;;;7371536;19;20011;-87
2023/01/29 07:54:12;;;;;;;38.92;30.08;;;4.10;99.90;;;;;;7371555;19;20563;-88
2023/01/29 07:56:38;;;;;;;37.85;29.98;;;4.10;99.90;;;;;;7364953;19;20019;-89
2023/01/29 07:59:05;;;;;;;35.80;28.55;;;4.20;99.90;;;;;;7369530;19;20014;-88
2023/01/29 08:01:32;;;;;;;40.03;32.63;;;4.10;99.90;;;;;;7364042;19;20018;-89
2023/01/29 08:03:58;;;;;;;35.03;30.08;;;4.20;99.90;;;;;;7368247;19;20025;-87
2023/01/29 08:06:24;;;;;;;35.55;30.50;;;4.20;99.90;;;;;;7368446;19;20022;-87
2023/01/29 08:08:51;;;;;;;35.65;29.55;;;4.20;99.90;;;;;;7367929;19;20019;-87
2023/01/29 08:11:18;;;;;;;38.20;31.65;;;4.20;99.90;;;;;;7368198;19;20017;-86
2023/01/29 08:13:45;;;;;;;38.60;32.35;;;4.20;99.90;;;;;;7370838;19;20447;-89
2023/01/29 08:16:11;;;;;;;39.53;32.55;;;4.20;99.90;;;;;;7374001;19;20018;-88
2023/01/29 08:18:38;;;;;;;35.80;31.95;;;4.20;99.90;;;;;;7367412;19;20023;-87
2023/01/29 08:21:04;;;;;;;36.95;31.55;;;4.20;99.90;;;;;;7371009;19;20830;-88
2023/01/29 08:23:30;;;;;;;40.05;32.15;;;4.20;99.90;;;;;;7371046;19;20031;-87
2023/01/29 08:25:57;;;;;;;41.03;32.42;;;4.20;99.90;;;;;;7365252;19;20121;-88
2023/01/29 08:42:43;;;;;;;35.38;28.35;;;4.30;99.90;;;;;;7423346;19;20383;-84
2023/01/29 08:45:12;;;;;;;38.20;29.00;;;4.40;99.90;;;;;;7427615;19;20018;-84
2023/01/29 08:47:45;;;;;;;40.25;30.92;;;4.40;99.90;;;;;;7418284;19;20018;-86
2023/01/29 08:50:11;;;;;;;38.67;31.58;;;4.40;99.90;;;;;;7417209;19;20014;-85
2023/01/29 08:52:37;;;;;;;41.15;29.15;;;4.40;99.90;;;;;;7416221;19;20015;-84
2023/01/29 08:55:04;;;;;;;37.42;30.30;;;4.40;99.90;;;;;;7418757;19;20654;-85
2023/01/29 08:57:31;;;;;;;37.53;32.08;;;4.50;99.90;;;;;;7412044;19;20375;-84
2023/01/29 08:59:58;;;;;;;36.10;30.42;;;4.50;99.90;;;;;;7415094;19;20620;-84
2023/01/29 09:02:24;;;;;;;37.15;29.85;;;4.50;99.90;;;;;;7409803;19;20468;-84
2023/01/29 09:04:51;;;;;;;35.17;29.98;;;4.60;99.90;;;;;;7418049;19;20026;-84
2023/01/29 09:07:20;;;;;;;38.17;31.67;;;4.50;99.90;;;;;;7416621;19;20014;-85
2023/01/29 09:09:46;;;;;;;36.65;30.40;;;4.60;99.90;;;;;;7424533;19;20520;-85
2023/01/29 09:12:13;;;;;;;37.47;30.92;;;4.60;99.90;;;;;;7418969;19;20041;-85
2023/01/29 09:14:40;;;;;;;36.58;30.67;;;4.60;99.90;;;;;;7421689;19;20029;-85
2023/01/29 09:17:06;;;;;;;38.08;31.83;;;4.60;99.90;;;;;;7417349;19;20014;-85
2023/01/29 09:19:33;;;;;;;39.25;30.98;;;4.70;99.90;;;;;;7419058;19;20014;-85
2023/01/29 09:21:59;;;;;;;35.17;29.38;;;4.70;99.90;;;;;;7413133;19;20034;-84
2023/01/29 09:24:26;;;;;;;34.15;30.45;;;4.70;99.90;;;;;;7416611;19;20054;-85
2023/01/29 09:26:53;;;;;;;38.80;30.55;;;4.80;99.90;;;;;;7418450;19;20646;-85
2023/01/29 09:29:19;;;;;;;33.38;29.13;;;4.70;99.90;;;;;;7418260;19;20014;-85
2023/01/29 09:31:46;;;;;;;34.03;30.27;;;4.70;99.90;;;;;;7418461;19;20034;-85
2023/01/29 09:34:13;;;;;;;35.78;29.70;;;4.70;99.90;;;;;;7417578;19;20022;-84
2023/01/29 09:36:39;;;;;;;34.63;30.40;;;4.70;99.90;;;;;;7418874;19;20394;-85
2023/01/29 09:39:10;;;;;;;33.83;29.02;;;4.70;99.90;;;;;;7417862;19;20081;-85
2023/01/29 09:42:00;;;;;;;35.13;28.45;;;4.70;99.90;;;;;;7417153;19;20075;-85
2023/01/29 09:44:51;;;;;;;36.78;29.33;;;4.80;99.90;;;;;;7407576;19;20017;-85
2023/01/29 09:47:22;;;;;;;34.38;27.77;;;4.90;99.90;;;;;;7410807;19;20853;-85
2023/01/29 09:50:20;;;;;;;33.03;28.55;;;4.90;99.90;;;;;;7405973;19;20106;-84
2023/01/29 09:52:57;;;;;;;37.55;29.50;;;4.90;99.90;;;;;;7388475;19;20021;-83
2023/01/29 09:55:31;;;;;;;34.75;29.40;;;4.90;99.90;;;;;;7376913;19;20359;-83
2023/01/29 09:58:04;;;;;;;34.95;28.60;;;4.90;99.90;;;;;;7378141;19;20022;-83
2023/01/29 10:00:58;;;;;;;36.28;28.50;;;4.90;99.90;;;;;;7377346;19;20056;-83
2023/01/29 10:03:43;;;;;;;33.80;28.20;;;4.80;99.90;;;;;;7377512;19;20018;-83
2023/01/29 10:06:40;;;;;;;32.65;28.30;;;4.90;99.90;;;;;;7377082;19;20019;-84
2023/01/29 10:09:28;;;;;;;34.63;28.38;;;4.80;99.90;;;;;;7377359;19;20370;-82
2023/01/29 10:12:30;;;;;;;33.83;28.27;;;4.80;99.90;;;;;;7375125;19;20021;-83
2023/01/29 10:15:21;;;;;;;36.10;29.02;;;4.90;99.90;;;;;;7375261;19;20019;-84
2023/01/29 10:18:01;;;;;;;33.17;27.88;;;4.90;99.90;;;;;;7375997;19;20030;-83
2023/01/29 10:20:46;;;;;;;37.67;30.27;;;4.80;99.90;;;;;;7374083;19;20010;-83
2023/01/29 10:23:27;;;;;;;30.77;27.13;;;4.90;99.90;;;;;;7374184;19;20018;-83
2023/01/29 10:25:54;;;;;;;36.08;30.02;;;4.90;99.90;;;;;;7374628;19;20022;-83
2023/01/29 10:28:37;;;;;;;33.95;28.20;;;4.90;99.90;;;;;;7375715;19;20022;-83
2023/01/29 10:31:31;;;;;;;35.33;29.95;;;4.90;99.90;;;;;;7374792;19;20041;-83
2023/01/29 10:34:24;;;;;;;32.58;28.88;;;4.90;99.90;;;;;;7373136;19;20102;-84
2023/01/29 10:36:50;;;;;;;36.92;31.13;;;5.00;99.90;;;;;;7374871;19;20014;-83
2023/01/29 10:39:19;;;;;;;34.15;29.52;;;5.00;99.90;;;;;;7377259;19;20591;-83
2023/01/29 10:42:00;;;;;;;35.45;30.13;;;4.90;99.90;;;;;;7371992;19;20036;-83
2023/01/29 10:44:29;;;;;;;35.80;30.33;;;4.90;99.90;;;;;;7375297;19;20006;-83
2023/01/29 10:47:23;;;;;;;33.70;29.27;;;4.90;99.90;;;;;;7375749;19;20033;-82
2023/01/29 10:50:22;;;;;;;37.47;30.45;;;5.00;99.90;;;;;;7374188;19;20022;-83
2023/01/29 10:53:04;;;;;;;32.67;29.13;;;4.90;99.90;;;;;;7371373;19;20031;-85
2023/01/29 10:56:02;;;;;;;34.25;30.52;;;4.90;99.90;;;;;;7371944;19;20482;-84
2023/01/29 10:58:40;;;;;;;34.63;29.15;;;4.90;99.90;;;;;;7373668;19;20063;-85
2023/01/29 11:01:09;;;;;;;36.58;31.45;;;4.90;99.90;;;;;;7371416;19;20022;-85
2023/01/29 11:03:37;;;;;;;37.03;30.60;;;4.90;99.90;;;;;;7373099;19;20018;-85
2023/01/29 11:06:22;;;;;;;38.30;30.75;;;4.90;99.90;;;;;;7373626;19;20537;-84
2023/01/29 11:09:07;;;;;;;36.80;31.58;;;4.90;99.90;;;;;;7371450;19;20361;-85
2023/01/29 11:11:56;;;;;;;33.90;28.33;;;4.90;99.90;;;;;;7374595;19;20014;-84
2023/01/29 11:14:39;;;;;;;39.67;31.40;;;4.90;99.90;;;;;;7374579;19;20371;-84
2023/01/29 11:17:17;;;;;;;39.42;32.30;;;4.90;99.90;;;;;;7373084;19;20015;-84
2023/01/29 11:19:47;;;;;;;38.70;29.42;;;4.90;99.90;;;;;;7376693;19;20515;-84
2023/01/29 11:22:16;;;;;;;36.05;31.50;;;4.90;99.90;;;;;;7374652;19;20022;-85
2023/01/29 11:24:43;;;;;;;36.35;29.20;;;4.90;99.90;;;;;;7376275;19;20029;-88
2023/01/29 11:27:24;;;;;;;41.97;30.23;;;5.00;99.90;;;;;;7376641;19;20010;-85
2023/01/29 11:29:52;;;;;;;34.08;29.88;;;5.00;99.90;;;;;;7356661;19;20019;-85
2023/01/29 11:32:27;;;;;;;37.90;32.20;;;5.00;99.90;;;;;;7369874;19;20053;-85
2023/01/29 11:35:05;;;;;;;34.72;28.90;;;5.00;99.90;;;;;;7370535;19;20019;-85
2023/01/29 11:37:37;;;;;;;39.70;30.77;;;5.00;99.90;;;;;;7373872;19;20290;-85
2023/01/29 11:40:23;;;;;;;38.00;31.23;;;5.00;99.90;;;;;;7372136;19;20205;-85
2023/01/29 11:42:52;;;;;;;37.97;31.50;;;5.00;99.90;;;;;;7369185;19;20028;-85
2023/01/29 11:45:26;;;;;;;42.88;32.30;;;5.00;99.90;;;;;;7366069;19;20025;-85
2023/01/29 11:47:54;;;;;;;37.97;32.67;;;5.00;99.90;;;;;;7367240;19;20510;-85
2023/01/29 11:50:27;;;;;;;36.25;30.75;;;5.10;99.90;;;;;;7368520;19;20023;-85
2023/01/29 11:52:53;;;;;;;37.65;32.10;;;5.00;99.90;;;;;;7369203;19;20473;-85
2023/01/29 11:55:24;;;;;;;39.63;31.45;;;5.00;99.90;;;;;;7369771;19;20026;-85
2023/01/29 11:57:58;;;;;;;41.05;32.17;;;5.10;99.90;;;;;;7372944;19;20029;-84
2023/01/29 12:00:31;;;;;;;44.75;35.63;;;5.10;99.90;;;;;;7367750;19;22026;-85
2023/01/29 12:03:27;;;;;;;41.05;32.20;;;5.10;99.90;;;;;;7367095;19;20473;-85
2023/01/29 12:06:00;;;;;;;40.40;33.22;;;5.20;99.90;;;;;;7366363;19;20018;-83
2023/01/29 12:08:34;;;;;;;39.42;31.48;;;5.20;99.90;;;;;;7374925;19;20394;-84
2023/01/29 12:11:28;;;;;;;41.38;32.20;;;5.30;99.90;;;;;;7369638;19;20047;-84
2023/01/29 12:13:59;;;;;;;41.28;29.50;;;5.30;99.90;;;;;;7371763;19;20015;-85
2023/01/29 12:16:56;;;;;;;35.67;29.57;;;5.40;99.90;;;;;;7371924;19;20034;-84
2023/01/29 12:19:46;;;;;;;35.13;28.73;;;5.50;99.90;;;;;;7369363;19;20833;-85
2023/01/29 12:22:27;;;;;;;33.95;30.02;;;5.60;99.90;;;;;;7365970;19;20041;-85
2023/01/29 12:25:06;;;;;;;34.90;29.35;;;5.60;99.90;;;;;;7369636;19;20018;-85
2023/01/29 12:27:59;;;;;;;34.70;28.85;;;5.70;99.90;;;;;;7370731;19;20027;-84
2023/01/29 12:30:52;;;;;;;31.15;25.33;;;5.70;99.90;;;;;;7369334;19;20019;-85
2023/01/29 12:33:41;;;;;;;33.10;27.02;;;5.90;99.90;;;;;;7377315;19;20018;-85
2023/01/29 12:36:40;;;;;;;30.63;27.08;;;5.90;99.90;;;;;;7367384;19;20041;-86
2023/01/29 12:39:11;;;;;;;32.20;26.00;;;5.90;99.90;;;;;;7376577;19;20050;-83
2023/01/29 12:41:53;;;;;;;33.72;27.45;;;5.90;99.90;;;;;;7370973;19;20738;-84
2023/01/29 12:44:29;;;;;;;32.22;26.38;;;5.80;99.90;;;;;;7365620;19;20741;-85
2023/01/29 12:46:59;;;;;;;31.67;27.10;;;5.80;99.90;;;;;;7377169;19;20339;-83
2023/01/29 12:49:30;;;;;;;30.45;27.02;;;5.80;99.90;;;;;;7373062;19;20011;-86
2023/01/29 12:52:01;;;;;;;;;;;5.80;99.90;;;;;;7364168;19;20065;-86
2023/01/29 12:54:38;;;;;;;29.65;25.95;;;5.90;99.90;;;;;;7370216;19;19923;-85
2023/01/29 12:57:16;;;;;;;32.90;25.75;;;6.00;99.90;;;;;;7368638;19;20014;-84
2023/01/29 12:59:51;;;;;;;34.70;27.77;;;5.90;99.90;;;;;;7373384;19;20018;-83
2023/01/29 13:02:36;;;;;;;32.75;25.85;;;5.90;99.90;;;;;;7372876;19;20082;-86
2023/01/29 13:05:20;;;;;;;34.30;26.13;;;5.90;99.90;;;;;;7369821;19;20433;-85
2023/01/29 13:08:02;;;;;;;35.80;27.87;;;5.70;99.90;;;;;;7371252;19;20530;-86
2023/01/29 13:10:35;;;;;;;34.00;28.83;;;5.70;99.90;;;;;;7372504;19;20342;-85
2023/01/29 13:13:25;;;;;;;35.75;28.92;;;5.60;99.90;;;;;;7372490;19;20452;-84
2023/01/29 13:15:52;;;;;;;40.75;29.92;;;5.50;99.90;;;;;;7368102;19;20018;-86
2023/01/29 13:18:22;;;;;;;37.72;30.38;;;5.50;99.90;;;;;;7370284;19;20026;-85
2023/01/29 13:20:49;;;;;;;37.95;30.48;;;5.40;99.90;;;;;;7368191;19;20018;-85
2023/01/29 13:23:24;;;;;;;43.47;30.92;;;5.30;99.90;;;;;;7367756;19;20530;-83
2023/01/29 13:25:53;;;;;;;35.42;28.50;;;5.30;99.90;;;;;;7371752;19;20405;-85
2023/01/29 13:28:25;;;;;;;35.83;29.35;;;5.30;99.90;;;;;;7376943;19;20018;-83
2023/01/29 13:31:19;;;;;;;37.25;28.83;;;5.30;99.90;;;;;;7378242;19;20535;-84
2023/01/29 13:34:13;;;;;;;34.47;29.20;;;5.30;99.90;;;;;;7385339;19;20022;-84
2023/01/29 13:36:54;;;;;;;35.55;29.45;;;5.40;99.90;;;;;;7388534;19;20010;-84
2023/01/29 13:39:24;;;;;;;41.08;29.95;;;5.40;99.90;;;;;;7384721;19;20015;-83
2023/01/29 13:41:55;;;;;;;36.35;30.55;;;5.40;99.90;;;;;;7382212;19;20366;-84
2023/01/29 13:44:27;;;;;;;35.83;29.70;;;5.40;99.90;;;;;;7382275;19;20074;-83
2023/01/29 13:46:59;;;;;;;35.55;30.10;;;5.40;99.90;;;;;;7379675;19;20470;-83
2023/01/29 13:49:58;;;;;;;38.13;30.63;;;5.40;99.90;;;;;;7386013;19;20014;-83
2023/01/29 13:52:39;;;;;;;34.30;27.42;;;5.40;99.90;;;;;;7379921;19;20050;-83